Time;durP1;ratioP1;P1;durP2;ratioP2;P2;SDS_P1;SDS_P2;PMS_P1;PMS_P2;Temp;Humidity;BMP_temperature;BMP_pressure;BME280_temperature;BME280_humidity;BME280_pressure;Samples;Min_cycle;Max_cycle;Signal;HPM_P1;HPM_P2
2022/05/19 00:01:05;;;;;;;7.57;6.38;;;18.20;99.90;;;;;;5118722;27;20027;-70
2022/05/19 00:03:33;;;;;;;9.10;6.75;;;18.10;99.90;;;;;;5118522;27;20434;-70
2022/05/19 00:06:00;;;;;;;6.28;5.68;;;18.20;99.90;;;;;;5101420;27;20027;-70
2022/05/19 00:08:26;;;;;;;6.65;5.55;;;18.20;99.90;;;;;;5136654;27;20106;-71
2022/05/19 00:10:52;;;;;;;6.13;5.53;;;18.20;99.90;;;;;;5136605;27;20093;-70
2022/05/19 00:13:18;;;;;;;7.38;6.15;;;18.20;99.90;;;;;;5136539;27;20068;-71
2022/05/19 00:15:43;;;;;;;11.00;6.78;;;18.20;99.90;;;;;;5136533;27;20407;-69
2022/05/19 00:18:15;;;;;;;8.70;5.78;;;18.20;99.90;;;;;;5136500;27;20027;-69
2022/05/19 00:20:40;;;;;;;8.35;6.10;;;18.20;99.90;;;;;;5101650;27;20027;-71
2022/05/19 00:23:06;;;;;;;7.32;6.53;;;18.10;99.90;;;;;;5136344;27;20024;-70
2022/05/19 00:25:32;;;;;;;7.55;6.60;;;18.00;99.90;;;;;;5117783;27;20491;-70
2022/05/19 00:27:57;;;;;;;7.15;6.03;;;17.90;99.90;;;;;;5136253;27;20429;-70
2022/05/19 00:30:23;;;;;;;7.85;6.40;;;17.90;99.90;;;;;;5136236;27;20396;-71
2022/05/19 00:32:48;;;;;;;6.50;5.88;;;17.80;99.90;;;;;;5136167;27;20066;-70
2022/05/19 00:35:15;;;;;;;8.25;6.40;;;17.80;99.90;;;;;;5135924;27;20051;-68
2022/05/19 00:37:40;;;;;;;8.05;6.43;;;17.80;99.90;;;;;;5136316;27;20525;-68
2022/05/19 00:40:07;;;;;;;6.40;5.80;;;17.90;99.90;;;;;;5135989;27;20108;-68
2022/05/19 00:42:50;;;;;;;7.38;5.85;;;17.90;99.90;;;;;;5135921;27;20023;-70
2022/05/19 00:45:20;;;;;;;8.75;6.22;;;17.90;99.90;;;;;;5120262;27;20023;-69
2022/05/19 00:48:10;;;;;;;7.55;6.18;;;17.80;99.90;;;;;;5100768;27;20541;-69
2022/05/19 00:53:47;;;;;;;8.40;6.53;;;17.80;99.90;;;;;;5111217;27;20404;-69
2022/05/19 00:56:26;;;;;;;10.68;7.05;;;17.80;99.90;;;;;;5111071;28;20099;-69
2022/05/19 00:59:14;;;;;;;8.80;6.55;;;17.70;99.90;;;;;;5110973;28;20486;-69
2022/05/19 01:01:42;;;;;;;7.75;6.35;;;17.70;99.90;;;;;;5110967;28;20549;-69
2022/05/19 01:04:25;;;;;;;7.82;6.30;;;17.60;99.90;;;;;;5110955;28;20046;-69
2022/05/19 01:06:56;;;;;;;10.25;6.55;;;17.60;99.90;;;;;;5111144;28;20031;-69
2022/05/19 01:09:21;;;;;;;8.73;6.28;;;17.60;99.90;;;;;;5111030;28;20470;-69
2022/05/19 01:11:52;;;;;;;8.35;6.50;;;17.50;99.90;;;;;;5110758;28;20054;-69
2022/05/19 01:14:17;;;;;;;7.38;6.28;;;17.50;99.90;;;;;;5110757;28;20098;-69
2022/05/19 01:16:43;;;;;;;13.13;6.38;;;17.50;99.90;;;;;;5109549;28;20055;-69
2022/05/19 01:19:33;;;;;;;7.75;6.90;;;17.50;99.90;;;;;;5110741;28;20020;-69
2022/05/19 01:22:05;;;;;;;8.35;6.35;;;17.50;99.90;;;;;;5110524;28;20024;-69
2022/05/19 01:24:40;;;;;;;7.18;5.72;;;17.50;99.90;;;;;;5110823;28;20032;-69
2022/05/19 01:27:05;;;;;;;7.38;6.28;;;17.60;99.90;;;;;;5110488;28;20032;-69
2022/05/19 01:29:31;;;;;;;8.13;6.35;;;17.60;99.90;;;;;;5109138;28;20027;-69
2022/05/19 01:31:59;;;;;;;7.53;6.40;;;17.60;99.90;;;;;;5110350;28;20028;-69
2022/05/19 01:34:31;;;;;;;8.65;6.38;;;17.60;99.90;;;;;;5109232;28;20017;-69
2022/05/19 01:36:58;;;;;;;8.88;6.72;;;17.60;99.90;;;;;;5110294;28;20474;-69
2022/05/19 01:39:28;;;;;;;9.25;6.60;;;17.60;99.90;;;;;;5109127;28;20019;-69
2022/05/19 01:45:05;;;;;;;7.50;6.40;;;17.60;99.90;;;;;;5090912;28;20352;-69
2022/05/19 01:47:43;;;;;;;6.68;6.00;;;17.70;99.90;;;;;;5089389;28;20062;-69
2022/05/19 01:50:29;;;;;;;10.95;6.25;;;17.60;99.90;;;;;;5090702;28;20107;-69
2022/05/19 01:53:02;;;;;;;8.30;5.70;;;17.60;99.90;;;;;;5090661;28;20107;-69
2022/05/19 01:55:56;;;;;;;10.43;5.88;;;17.60;99.90;;;;;;5090571;28;20104;-69
2022/05/19 01:58:30;;;;;;;8.90;6.00;;;17.50;99.90;;;;;;5090522;28;20028;-69
2022/05/19 02:00:59;;;;;;;7.82;6.40;;;17.50;99.90;;;;;;5090474;28;20035;-69
2022/05/19 02:03:47;;;;;;;10.32;6.75;;;17.40;99.90;;;;;;5090354;28;20470;-69
2022/05/19 02:06:38;;;;;;;13.70;6.07;;;17.40;99.90;;;;;;5089421;28;20043;-69
2022/05/19 02:09:09;;;;;;;7.80;6.07;;;17.30;99.90;;;;;;5088996;28;20094;-69
2022/05/19 02:11:41;;;;;;;10.25;7.10;;;17.20;99.90;;;;;;5090244;28;20017;-69
2022/05/19 02:14:15;;;;;;;8.50;7.00;;;17.20;99.90;;;;;;5090222;28;20020;-69
2022/05/19 02:16:42;;;;;;;8.93;6.57;;;17.10;99.90;;;;;;5090280;28;20079;-69
2022/05/19 02:19:10;;;;;;;7.07;6.25;;;17.10;99.90;;;;;;5089216;28;20073;-69
2022/05/19 02:21:36;;;;;;;9.27;6.35;;;17.20;99.90;;;;;;5090095;28;20029;-69
2022/05/19 02:24:02;;;;;;;7.65;6.20;;;17.20;99.90;;;;;;5089043;28;20028;-69
2022/05/19 02:26:38;;;;;;;7.38;6.15;;;17.30;99.90;;;;;;5090027;28;20020;-69
2022/05/19 02:29:09;;;;;;;7.70;5.63;;;17.30;99.90;;;;;;5089974;28;20031;-69
2022/05/19 02:31:35;;;;;;;9.95;5.95;;;17.30;99.90;;;;;;5089922;28;20443;-69
2022/05/19 02:34:01;;;;;;;8.93;6.50;;;17.30;99.90;;;;;;5089837;28;20160;-69
2022/05/19 02:36:27;;;;;;;7.97;6.38;;;17.30;99.90;;;;;;5088597;28;20111;-69
2022/05/19 02:38:53;;;;;;;7.85;6.18;;;17.20;99.90;;;;;;5089790;28;20031;-69
2022/05/19 02:41:19;;;;;;;7.88;6.35;;;17.20;99.90;;;;;;5089665;28;20021;-69
2022/05/19 02:43:44;;;;;;;10.50;6.57;;;17.20;99.90;;;;;;5088261;28;20403;-69
2022/05/19 02:46:10;;;;;;;7.00;6.30;;;17.20;99.90;;;;;;5089699;28;20025;-69
2022/05/19 02:48:36;;;;;;;8.82;7.00;;;17.10;99.90;;;;;;5089812;28;20031;-69
2022/05/19 02:51:04;;;;;;;8.77;6.88;;;17.00;99.90;;;;;;5088230;28;20020;-69
2022/05/19 02:53:29;;;;;;;7.68;6.30;;;17.00;99.90;;;;;;5089465;28;20082;-69
2022/05/19 02:55:55;;;;;;;8.57;5.93;;;17.00;99.90;;;;;;5076600;28;20025;-69
2022/05/19 02:58:20;;;;;;;10.25;6.35;;;17.00;99.90;;;;;;5075885;28;20029;-69
2022/05/19 03:00:48;;;;;;;6.75;6.05;;;17.00;99.90;;;;;;5074808;28;20016;-70
2022/05/19 03:03:14;;;;;;;12.82;7.18;;;16.90;99.90;;;;;;5075685;28;20020;-69
2022/05/19 03:05:40;;;;;;;9.70;7.00;;;16.90;99.90;;;;;;5075744;28;20097;-69
2022/05/19 03:08:07;;;;;;;10.52;7.35;;;16.90;99.90;;;;;;5075739;28;20032;-69
2022/05/19 03:10:36;;;;;;;9.23;7.25;;;16.90;99.90;;;;;;5075633;28;20024;-69
2022/05/19 03:13:02;;;;;;;8.23;6.93;;;16.90;99.90;;;;;;5075592;28;20051;-69
2022/05/19 03:15:28;;;;;;;10.60;7.63;;;16.80;99.90;;;;;;5075632;28;20551;-69
2022/05/19 03:17:54;;;;;;;7.97;6.97;;;16.90;99.90;;;;;;5075561;28;20418;-69
2022/05/19 03:20:20;;;;;;;13.93;7.57;;;17.00;99.90;;;;;;5075537;28;20028;-69
2022/05/19 03:22:46;;;;;;;7.38;6.53;;;17.00;99.90;;;;;;5075364;28;20027;-70
2022/05/19 03:25:11;;;;;;;12.98;6.47;;;17.10;99.90;;;;;;5074238;28;20025;-69
2022/05/19 03:27:38;;;;;;;9.40;6.72;;;17.10;99.90;;;;;;5075314;28;20434;-69
2022/05/19 03:30:06;;;;;;;8.95;6.25;;;17.20;99.90;;;;;;5075287;28;20071;-69
2022/05/19 03:32:32;;;;;;;8.88;6.40;;;17.20;99.90;;;;;;5073975;28;20033;-69
2022/05/19 03:34:58;;;;;;;8.23;6.43;;;17.20;99.90;;;;;;5075228;28;20077;-69
2022/05/19 03:37:23;;;;;;;9.40;6.85;;;17.30;99.90;;;;;;5073877;28;20024;-69
2022/05/19 03:39:49;;;;;;;11.75;7.43;;;17.20;99.90;;;;;;5075171;28;20536;-69
2022/05/19 03:42:15;;;;;;;11.00;7.57;;;17.20;99.90;;;;;;5074902;28;20031;-69
2022/05/19 03:44:40;;;;;;;10.48;7.40;;;17.10;99.90;;;;;;5073780;28;20028;-69
2022/05/19 03:47:08;;;;;;;8.10;6.82;;;17.00;99.90;;;;;;5073767;28;20117;-69
2022/05/19 03:49:34;;;;;;;9.60;6.55;;;17.00;99.90;;;;;;5073725;28;20118;-69
2022/05/19 03:52:00;;;;;;;10.00;7.80;;;17.00;99.90;;;;;;5074849;28;20032;-69
2022/05/19 03:54:26;;;;;;;10.18;6.70;;;17.10;99.90;;;;;;5073486;28;20025;-69
2022/05/19 03:56:51;;;;;;;11.18;7.28;;;17.20;99.90;;;;;;5074823;28;20043;-69
2022/05/19 03:59:17;;;;;;;8.63;6.60;;;17.30;99.90;;;;;;5073412;28;20032;-69
2022/05/19 04:01:42;;;;;;;11.85;6.88;;;17.40;99.90;;;;;;5074706;28;20036;-69
2022/05/19 04:04:08;;;;;;;8.80;6.97;;;17.40;99.90;;;;;;5074521;28;20052;-69
2022/05/19 04:06:35;;;;;;;8.85;6.60;;;17.40;99.90;;;;;;5073581;28;20023;-69
2022/05/19 04:09:03;;;;;;;10.73;6.60;;;17.50;99.90;;;;;;5073366;28;20067;-69
2022/05/19 04:11:29;;;;;;;9.65;6.65;;;17.50;99.90;;;;;;5074501;28;20090;-69
2022/05/19 04:13:54;;;;;;;8.82;6.93;;;17.50;99.90;;;;;;5074400;28;20021;-69
2022/05/19 04:16:19;;;;;;;9.15;6.47;;;17.50;99.90;;;;;;5074387;28;20451;-69
2022/05/19 04:18:45;;;;;;;8.95;7.25;;;17.50;99.90;;;;;;5074354;28;20395;-69
2022/05/19 04:21:11;;;;;;;12.07;7.20;;;17.50;99.90;;;;;;5073149;28;20085;-69
2022/05/19 04:23:36;;;;;;;9.55;7.25;;;17.50;99.90;;;;;;5074129;28;20386;-69
2022/05/19 04:26:02;;;;;;;12.75;7.38;;;17.50;99.90;;;;;;5074080;28;20488;-69
2022/05/19 04:28:28;;;;;;;10.95;6.82;;;17.50;99.90;;;;;;5074094;28;20395;-69
2022/05/19 04:30:53;;;;;;;9.38;7.00;;;17.50;99.90;;;;;;5074079;28;20032;-69
2022/05/19 04:33:19;;;;;;;9.55;6.90;;;17.60;99.90;;;;;;5073989;28;20025;-69
2022/05/19 04:35:44;;;;;;;8.05;6.88;;;17.60;99.90;;;;;;5072638;28;20058;-69
2022/05/19 04:38:13;;;;;;;8.25;6.13;;;17.90;99.90;;;;;;5074248;28;20031;-69
2022/05/19 04:40:41;;;;;;;7.65;6.20;;;18.10;99.90;;;;;;5074103;28;20518;-69
2022/05/19 04:43:07;;;;;;;8.38;6.45;;;18.30;99.90;;;;;;5073532;28;20049;-69
2022/05/19 04:45:33;;;;;;;8.88;7.15;;;18.50;99.90;;;;;;5073736;28;20356;-69
2022/05/19 04:47:59;;;;;;;10.50;6.53;;;18.60;99.90;;;;;;5073699;28;20036;-69
2022/05/19 04:50:25;;;;;;;7.78;5.85;;;18.70;99.90;;;;;;5073711;28;20095;-69
2022/05/19 04:52:51;;;;;;;10.32;6.47;;;18.90;99.90;;;;;;5073641;28;20514;-69
2022/05/19 04:55:17;;;;;;;8.77;6.20;;;19.00;99.90;;;;;;5072488;28;20052;-69
2022/05/19 04:57:44;;;;;;;11.38;5.85;;;19.10;99.90;;;;;;5073607;28;20025;-69
2022/05/19 05:00:13;;;;;;;8.38;6.10;;;19.20;99.90;;;;;;5073071;28;20085;-69
2022/05/19 05:02:39;;;;;;;6.65;5.90;;;19.40;99.90;;;;;;5074211;28;20375;-69
2022/05/19 05:05:06;;;;;;;7.82;6.22;;;19.50;99.90;;;;;;5072259;28;20020;-69
2022/05/19 05:07:32;;;;;;;11.45;6.40;;;19.60;99.90;;;;;;5071812;28;20020;-69
2022/05/19 05:09:58;;;;;;;8.80;5.82;;;19.70;99.90;;;;;;5072541;28;20070;-69
2022/05/19 05:12:23;;;;;;;6.75;5.85;;;19.70;99.90;;;;;;5071873;28;20020;-70
2022/05/19 05:14:50;;;;;;;9.48;6.15;;;19.70;99.90;;;;;;5071308;28;20032;-70
2022/05/19 05:17:16;;;;;;;8.73;5.80;;;19.90;99.90;;;;;;5073114;28;20426;-69
2022/05/19 05:19:42;;;;;;;9.15;5.63;;;20.10;99.90;;;;;;5073204;28;20078;-69
2022/05/19 05:22:07;;;;;;;7.07;5.72;;;20.40;99.90;;;;;;5073162;28;20028;-69
2022/05/19 05:24:33;;;;;;;9.02;5.82;;;20.70;99.90;;;;;;5073045;28;20108;-70
2022/05/19 05:27:00;;;;;;;8.18;5.50;;;21.20;99.90;;;;;;5073110;28;20052;-70
2022/05/19 05:29:25;;;;;;;5.75;5.10;;;21.90;99.90;;;;;;5073123;28;20025;-69
2022/05/19 05:31:51;;;;;;;5.60;4.50;;;23.10;99.90;;;;;;5055249;28;20032;-69
2022/05/19 05:34:17;;;;;;;7.57;4.75;;;24.60;99.90;;;;;;5073086;28;20028;-69
2022/05/19 05:36:42;;;;;;;6.82;4.93;;;26.00;99.90;;;;;;5071789;28;20608;-70
2022/05/19 05:39:11;;;;;;;7.57;4.68;;;26.80;99.90;;;;;;5071775;28;20405;-71
2022/05/19 05:41:37;;;;;;;4.38;3.88;;;27.50;99.30;;;;;;5038384;28;20044;-69
2022/05/19 05:44:03;;;;;;;6.82;4.47;;;27.80;97.80;;;;;;5072776;28;20070;-68
2022/05/19 05:46:28;;;;;;;8.80;4.53;;;28.30;96.20;;;;;;5073041;28;20115;-68
2022/05/19 05:48:54;;;;;;;7.63;4.82;;;27.90;96.00;;;;;;5073019;28;20024;-68
2022/05/19 05:51:19;;;;;;;4.93;4.40;;;27.70;95.20;;;;;;5072909;28;20025;-68
2022/05/19 05:53:46;;;;;;;6.18;4.25;;;27.20;96.70;;;;;;5073171;28;20386;-68
2022/05/19 05:56:17;;;;;;;6.15;4.30;;;27.70;96.70;;;;;;5072882;28;20036;-68
2022/05/19 05:58:43;;;;;;;8.15;4.47;;;27.70;95.60;;;;;;5072847;28;20028;-68
2022/05/19 06:01:11;;;;;;;5.53;5.00;;;27.70;95.10;;;;;;5072848;28;20128;-68
2022/05/19 06:03:37;;;;;;;5.85;4.25;;;27.50;95.40;;;;;;5071675;28;20056;-68
2022/05/19 06:06:03;;;;;;;6.80;4.28;;;27.20;96.60;;;;;;5073647;28;20020;-68
2022/05/19 06:08:29;;;;;;;8.05;4.18;;;27.60;96.80;;;;;;5071699;28;20024;-68
2022/05/19 06:10:55;;;;;;;5.53;4.05;;;27.50;96.70;;;;;;5070611;28;20494;-68
2022/05/19 06:13:21;;;;;;;4.43;3.50;;;27.40;96.70;;;;;;5070414;28;20024;-68
2022/05/19 06:15:47;;;;;;;5.18;3.83;;;27.10;95.30;;;;;;5071159;28;20032;-68
2022/05/19 06:18:13;;;;;;;5.32;3.90;;;26.90;97.30;;;;;;5070088;28;20078;-68
2022/05/19 06:20:41;;;;;;;7.18;4.10;;;26.40;99.90;;;;;;5071345;28;20032;-68
2022/05/19 06:23:08;;;;;;;5.40;4.40;;;26.50;99.90;;;;;;5069877;28;20024;-68
2022/05/19 06:25:35;;;;;;;7.53;4.20;;;26.40;99.20;;;;;;5071653;28;20534;-68
2022/05/19 06:28:01;;;;;;;6.75;4.28;;;25.80;99.90;;;;;;5071301;28;20028;-68
2022/05/19 06:30:27;;;;;;;8.65;4.72;;;25.50;99.90;;;;;;5067695;28;20029;-67
2022/05/19 06:32:53;;;;;;;5.75;4.47;;;24.90;99.90;;;;;;5073594;28;20031;-68
2022/05/19 06:35:24;;;;;;;7.75;4.47;;;24.70;99.90;;;;;;5075145;28;20029;-68
2022/05/19 06:37:49;;;;;;;9.52;4.72;;;24.60;99.90;;;;;;5074743;28;20068;-68
2022/05/19 06:40:18;;;;;;;9.57;4.97;;;24.50;99.90;;;;;;5074826;28;20552;-68
2022/05/19 06:42:44;;;;;;;6.80;4.45;;;24.30;99.90;;;;;;5074678;28;20036;-68
2022/05/19 06:45:11;;;;;;;4.32;3.92;;;24.40;99.90;;;;;;5070835;28;20166;-68
2022/05/19 06:47:37;;;;;;;7.88;4.45;;;25.40;99.90;;;;;;5062002;28;20029;-68
2022/05/19 06:50:05;;;;;;;7.28;4.10;;;25.80;99.90;;;;;;5058167;28;20027;-68
2022/05/19 06:52:33;;;;;;;7.63;4.00;;;26.60;99.90;;;;;;5075099;28;20055;-68
2022/05/19 06:55:00;;;;;;;10.68;4.07;;;28.80;95.40;;;;;;5073123;28;20422;-68
2022/05/19 06:57:28;;;;;;;7.05;3.85;;;28.80;94.10;;;;;;5056931;28;20044;-68
2022/05/19 06:59:54;;;;;;;8.27;3.90;;;28.60;92.90;;;;;;5073815;28;20031;-68
2022/05/19 07:02:21;;;;;;;6.55;3.88;;;30.10;90.50;;;;;;5072997;28;20048;-69
2022/05/19 07:04:47;;;;;;;8.20;3.90;;;29.70;89.00;;;;;;5070335;28;20032;-68
2022/05/19 07:07:13;;;;;;;6.88;3.45;;;29.80;88.60;;;;;;5072270;28;20032;-68
2022/05/19 07:09:40;;;;;;;10.45;4.13;;;29.90;86.40;;;;;;5069637;28;20025;-68
2022/05/19 07:12:07;;;;;;;7.20;4.25;;;30.10;85.20;;;;;;5071310;28;20065;-68
2022/05/19 07:14:33;;;;;;;5.03;4.05;;;30.30;85.90;;;;;;5070600;28;20028;-67
2022/05/19 07:16:59;;;;;;;7.50;3.50;;;30.10;85.10;;;;;;5063809;28;20036;-67
2022/05/19 07:22:21;;;;;;;6.88;3.50;;;29.70;82.80;;;;;;5066132;28;20032;-68
2022/05/19 07:24:47;;;;;;;8.07;3.50;;;29.00;83.90;;;;;;5067940;28;20067;-68
2022/05/19 07:27:13;;;;;;;10.50;3.50;;;28.50;88.40;;;;;;5069878;28;20083;-70
2022/05/19 07:29:39;;;;;;;6.75;3.42;;;28.50;86.00;;;;;;5065591;28;20025;-67
2022/05/19 07:32:05;;;;;;;5.50;3.80;;;28.20;87.80;;;;;;5069249;28;20061;-69
2022/05/19 07:34:33;;;;;;;7.57;3.70;;;27.70;86.90;;;;;;5073274;28;20125;-70
2022/05/19 07:37:00;;;;;;;8.10;3.45;;;27.90;87.30;;;;;;5073673;28;20594;-67
2022/05/19 07:39:26;;;;;;;5.35;3.55;;;28.70;85.60;;;;;;5073248;28;20024;-68
2022/05/19 07:41:55;;;;;;;4.72;3.47;;;29.10;85.40;;;;;;5072066;28;20099;-68
2022/05/19 07:44:21;;;;;;;7.45;3.70;;;29.30;84.90;;;;;;5070870;28;20124;-68
2022/05/19 07:46:48;;;;;;;5.95;3.17;;;30.40;83.60;;;;;;5070718;28;20028;-68
2022/05/19 07:49:13;;;;;;;4.88;3.30;;;29.80;81.10;;;;;;5053767;28;20013;-67
2022/05/19 07:51:40;;;;;;;8.02;3.45;;;29.60;80.90;;;;;;5061088;28;20036;-68
2022/05/19 07:54:11;;;;;;;9.43;3.72;;;29.20;83.60;;;;;;5057059;28;20033;-67
2022/05/19 07:56:38;;;;;;;6.10;3.72;;;29.00;85.00;;;;;;5063050;28;20032;-69
2022/05/19 07:59:04;;;;;;;5.57;3.33;;;28.50;84.90;;;;;;5067717;28;20028;-69
2022/05/19 08:01:30;;;;;;;6.85;3.65;;;27.90;86.30;;;;;;5056139;28;20045;-69
2022/05/19 08:03:58;;;;;;;6.97;3.58;;;27.50;89.70;;;;;;5051643;28;20392;-69
2022/05/19 08:06:23;;;;;;;7.05;4.15;;;27.70;91.80;;;;;;5068568;28;20032;-68
2022/05/19 08:08:49;;;;;;;4.38;3.65;;;27.40;89.50;;;;;;5048389;28;20035;-68
2022/05/19 08:11:14;;;;;;;5.15;3.50;;;27.40;90.80;;;;;;5068433;28;20028;-69
2022/05/19 08:16:26;;;;;;;7.63;3.83;;;27.80;92.40;;;;;;5052024;28;20036;-71
2022/05/19 08:18:51;;;;;;;9.43;4.10;;;28.30;91.80;;;;;;5053467;28;20487;-69
2022/05/19 08:21:17;;;;;;;6.05;3.88;;;28.00;91.20;;;;;;5036272;28;20041;-69
2022/05/19 08:23:47;;;;;;;5.65;4.05;;;28.70;89.60;;;;;;5052851;28;20056;-67
2022/05/19 08:26:14;;;;;;;7.18;4.10;;;29.20;89.00;;;;;;5053364;28;20021;-67
2022/05/19 08:28:42;;;;;;;6.50;4.57;;;29.10;87.50;;;;;;5056578;28;20517;-67
2022/05/19 08:31:11;;;;;;;6.63;4.15;;;29.30;85.60;;;;;;5052604;28;20024;-67
2022/05/19 08:33:38;;;;;;;9.77;4.10;;;29.20;90.30;;;;;;5057324;28;20036;-68
2022/05/19 08:36:05;;;;;;;6.93;4.15;;;28.90;86.90;;;;;;5051744;28;20029;-68
2022/05/19 08:38:31;;;;;;;5.15;3.75;;;28.40;86.10;;;;;;5057068;28;20039;-67
2022/05/19 08:41:02;;;;;;;5.85;3.70;;;28.50;85.70;;;;;;5066209;28;20021;-68
2022/05/19 08:43:51;;;;;;;7.75;4.00;;;28.40;86.30;;;;;;5064795;28;20453;-67
2022/05/19 08:46:21;;;;;;;5.75;4.03;;;28.60;85.30;;;;;;5072216;28;20033;-68
2022/05/19 08:48:50;;;;;;;6.63;4.00;;;29.20;83.70;;;;;;5069337;28;20021;-68
2022/05/19 08:51:17;;;;;;;7.53;4.00;;;29.90;83.80;;;;;;5072622;28;20013;-68
2022/05/19 08:53:43;;;;;;;4.22;3.83;;;29.80;82.20;;;;;;5072004;28;20036;-68
2022/05/19 08:56:23;;;;;;;5.70;3.67;;;29.50;82.80;;;;;;5072350;28;20111;-69
2022/05/19 08:59:27;;;;;;;4.18;3.60;;;29.70;79.30;;;;;;5070912;28;20056;-68
2022/05/19 09:02:14;;;;;;;6.82;4.10;;;30.30;78.60;;;;;;5052332;28;20053;-68
2022/05/19 09:05:20;;;;;;;7.78;3.53;;;29.90;76.30;;;;;;5063353;28;20072;-68
2022/05/19 09:08:04;;;;;;;7.28;3.92;;;29.10;80.70;;;;;;5055546;28;20038;-68
2022/05/19 09:11:05;;;;;;;7.78;3.97;;;28.50;82.70;;;;;;5067495;28;20127;-68
2022/05/19 09:13:53;;;;;;;6.88;3.95;;;28.80;82.50;;;;;;5067320;28;20024;-68
2022/05/19 09:16:23;;;;;;;6.03;3.80;;;29.10;81.00;;;;;;5063059;28;20032;-68
2022/05/19 09:19:16;;;;;;;7.53;4.03;;;28.70;81.20;;;;;;5064895;28;20526;-67
2022/05/19 09:21:43;;;;;;;6.15;3.92;;;28.50;82.80;;;;;;5067636;28;20374;-68
2022/05/19 09:24:11;;;;;;;8.27;4.40;;;28.30;82.60;;;;;;5053514;28;20035;-68
2022/05/19 09:26:49;;;;;;;5.95;3.85;;;28.20;83.90;;;;;;5063568;28;20103;-68
2022/05/19 09:29:21;;;;;;;4.72;3.55;;;28.50;84.20;;;;;;5063748;28;20021;-68
2022/05/19 09:31:51;;;;;;;26.40;4.75;;;29.20;81.00;;;;;;5066317;28;20544;-68
2022/05/19 09:34:17;;;;;;;8.40;3.72;;;29.10;80.90;;;;;;5063805;28;20021;-68
2022/05/19 09:37:00;;;;;;;7.10;3.55;;;29.10;83.00;;;;;;5066542;28;20482;-68
2022/05/19 09:39:28;;;;;;;12.35;4.53;;;29.10;81.00;;;;;;5063455;28;20543;-68
2022/05/19 09:41:55;;;;;;;5.10;3.53;;;29.30;81.50;;;;;;5066723;28;20055;-68
2022/05/19 09:44:28;;;;;;;9.93;3.63;;;29.70;80.00;;;;;;5060906;28;20044;-68
2022/05/19 09:46:54;;;;;;;4.97;3.92;;;30.00;80.30;;;;;;5070267;28;20511;-68
2022/05/19 09:49:32;;;;;;;12.05;4.00;;;30.30;78.30;;;;;;5063779;28;20027;-68
2022/05/19 09:52:01;;;;;;;14.73;4.43;;;30.10;79.50;;;;;;5055382;28;20016;-68
2022/05/19 09:54:30;;;;;;;5.20;3.97;;;29.60;82.00;;;;;;5067735;28;20511;-68
2022/05/19 09:57:05;;;;;;;10.07;3.97;;;29.40;81.90;;;;;;5068319;28;20032;-68
2022/05/19 09:59:46;;;;;;;8.73;3.75;;;29.20;82.80;;;;;;5067606;28;20447;-68
2022/05/19 10:02:35;;;;;;;4.68;3.22;;;29.10;83.90;;;;;;5070836;28;20028;-68
2022/05/19 10:05:18;;;;;;;7.80;3.83;;;29.30;85.00;;;;;;5070592;28;20031;-68
2022/05/19 10:07:47;;;;;;;5.70;3.75;;;29.40;85.20;;;;;;5059304;28;20051;-68
2022/05/19 10:10:20;;;;;;;8.52;3.65;;;30.10;84.50;;;;;;5067850;28;20487;-68
2022/05/19 10:12:47;;;;;;;;;;;30.30;83.40;;;;;;5071612;28;20107;-68
2022/05/19 10:15:18;;;;;;;6.35;3.58;;;30.50;82.00;;;;;;5068052;28;19969;-68
2022/05/19 10:18:02;;;;;;;7.03;4.55;;;30.40;81.80;;;;;;5069625;28;20025;-68
2022/05/19 10:20:32;;;;;;;6.38;3.55;;;29.50;80.20;;;;;;5068753;28;20390;-68
2022/05/19 10:23:37;;;;;;;5.10;3.85;;;29.40;82.80;;;;;;5071140;28;20131;-69
2022/05/19 10:26:29;;;;;;;8.40;3.83;;;29.40;83.30;;;;;;5071009;28;20032;-68
2022/05/19 10:32:45;;;;;;;5.47;3.97;;;29.00;84.40;;;;;;5066429;28;20509;-68
2022/05/19 10:35:46;;;;;;;7.63;3.88;;;29.00;85.50;;;;;;5066306;28;20479;-68
2022/05/19 10:38:36;;;;;;;7.95;3.70;;;29.50;88.00;;;;;;5067485;28;20016;-68
2022/05/19 10:41:35;;;;;;;4.85;3.83;;;29.80;83.20;;;;;;5066543;28;20021;-68
2022/05/19 10:44:15;;;;;;;4.68;3.70;;;30.30;82.90;;;;;;5069167;28;20037;-68
2022/05/19 10:47:06;;;;;;;9.13;3.65;;;30.90;82.60;;;;;;5073568;28;20391;-69
2022/05/19 10:49:59;;;;;;;6.07;3.58;;;31.20;81.00;;;;;;5084908;28;20021;-68
2022/05/19 10:55:27;;;;;;;7.18;3.65;;;30.50;79.10;;;;;;5110799;27;20384;-69
2022/05/19 10:58:09;;;;;;;4.53;3.30;;;30.30;81.90;;;;;;5108496;28;20032;-69
2022/05/19 11:01:00;;;;;;;5.53;3.20;;;30.40;82.00;;;;;;5109929;28;20107;-69
2022/05/19 11:03:55;;;;;;;5.38;3.78;;;30.70;82.40;;;;;;5096139;28;20279;-69
2022/05/19 11:06:39;;;;;;;7.60;3.70;;;31.10;78.50;;;;;;5089164;28;20421;-69
2022/05/19 11:09:25;;;;;;;4.80;3.22;;;30.90;80.30;;;;;;5109313;28;20020;-69
2022/05/19 11:12:07;;;;;;;4.60;3.35;;;30.60;82.00;;;;;;5102844;28;20031;-69
2022/05/19 11:14:52;;;;;;;5.07;3.70;;;30.10;80.30;;;;;;5093348;28;20050;-69
2022/05/19 11:17:37;;;;;;;5.78;3.40;;;29.50;82.20;;;;;;5097551;28;20032;-69
2022/05/19 11:20:11;;;;;;;4.75;3.55;;;30.20;79.70;;;;;;5101360;28;20144;-69
2022/05/19 11:22:39;;;;;;;6.95;3.88;;;30.00;78.20;;;;;;5112808;28;20354;-69
2022/05/19 11:28:04;;;;;;;5.72;3.20;;;30.40;74.20;;;;;;5101286;28;20031;-70
2022/05/19 11:30:37;;;;;;;5.00;3.40;;;29.60;77.60;;;;;;5105832;28;20485;-69
2022/05/19 11:33:07;;;;;;;5.45;3.50;;;30.10;75.70;;;;;;5099244;28;20021;-69
2022/05/19 11:35:39;;;;;;;5.55;3.15;;;29.90;75.90;;;;;;5110409;28;20019;-69
2022/05/19 11:38:24;;;;;;;5.10;3.70;;;29.80;76.30;;;;;;5105785;28;20020;-69
2022/05/19 11:41:00;;;;;;;6.38;3.33;;;29.90;78.90;;;;;;5113970;28;20458;-69
2022/05/19 11:43:37;;;;;;;8.60;3.42;;;30.40;78.20;;;;;;5109344;28;20055;-69
2022/05/19 11:46:09;;;;;;;5.80;3.30;;;30.40;76.10;;;;;;5111931;28;20024;-68
2022/05/19 11:55:19;;;;;;;4.65;3.20;;;30.90;74.50;;;;;;5102032;28;20051;-69
2022/05/19 11:57:46;;;;;;;6.90;3.92;;;30.80;73.70;;;;;;5107763;28;20056;-69
2022/05/19 12:00:22;;;;;;;6.68;3.55;;;30.40;74.30;;;;;;5108829;28;20027;-69
2022/05/19 12:02:59;;;;;;;3.47;3.17;;;30.00;76.20;;;;;;5108279;28;20028;-68
2022/05/19 12:06:04;;;;;;;8.55;3.15;;;29.90;76.70;;;;;;5102680;28;20505;-68
2022/05/19 12:08:53;;;;;;;5.82;3.40;;;29.90;76.20;;;;;;5099539;28;20165;-68
2022/05/19 12:11:26;;;;;;;8.82;3.78;;;29.80;75.80;;;;;;5092752;28;20024;-68
2022/05/19 12:14:27;;;;;;;8.05;3.83;;;29.90;78.10;;;;;;5110128;27;20039;-67
2022/05/19 12:19:39;;;;;;;6.22;3.70;;;30.50;75.00;;;;;;5108783;27;20366;-69
2022/05/19 12:22:10;;;;;;;4.75;3.70;;;30.90;77.60;;;;;;5126601;28;20485;-69
2022/05/19 12:24:42;;;;;;;8.23;3.65;;;30.70;75.70;;;;;;5117330;27;20081;-69
2022/05/19 12:27:30;;;;;;;8.03;3.80;;;30.70;77.40;;;;;;5094438;28;20032;-69
2022/05/19 12:33:11;;;;;;;5.40;3.50;;;30.90;77.70;;;;;;5114394;28;20476;-68
2022/05/19 12:35:38;;;;;;;6.47;3.58;;;31.50;76.10;;;;;;5098060;28;20032;-69
2022/05/19 12:38:06;;;;;;;4.72;3.38;;;31.70;75.50;;;;;;5109122;28;20490;-69
2022/05/19 12:40:53;;;;;;;8.70;3.70;;;31.80;73.80;;;;;;5114064;28;20109;-69
2022/05/19 12:46:00;;;;;;;8.02;3.53;;;31.30;73.60;;;;;;5095981;27;20787;-69
2022/05/19 12:48:38;;;;;;;3.92;3.33;;;30.70;74.40;;;;;;5092407;28;20028;-69
2022/05/19 12:51:11;;;;;;;7.47;3.35;;;30.70;74.60;;;;;;5085803;28;20126;-69
2022/05/19 12:56:52;;;;;;;8.10;3.67;;;31.10;73.80;;;;;;5132242;27;20407;-69
2022/05/19 12:59:56;;;;;;;4.38;3.50;;;30.80;72.30;;;;;;5091625;28;20455;-70
2022/05/19 13:02:30;;;;;;;6.53;3.80;;;30.60;76.00;;;;;;5109563;28;20409;-70
2022/05/19 13:05:04;;;;;;;6.82;3.90;;;30.40;76.50;;;;;;5110785;28;21479;-69
2022/05/19 13:07:41;;;;;;;9.10;4.07;;;29.90;77.90;;;;;;5109567;28;20028;-69
2022/05/19 13:10:23;;;;;;;7.75;3.45;;;29.70;78.60;;;;;;5094102;28;20456;-70
2022/05/19 13:12:56;;;;;;;7.75;4.10;;;29.70;78.60;;;;;;5108004;28;20051;-71
2022/05/19 13:15:25;;;;;;;5.60;3.70;;;29.90;80.40;;;;;;5081999;28;20106;-70
2022/05/19 13:17:51;;;;;;;4.80;3.50;;;30.30;79.10;;;;;;5109722;28;20039;-70
2022/05/19 13:20:23;;;;;;;6.38;3.92;;;30.60;78.90;;;;;;5107898;28;20083;-70
2022/05/19 13:22:54;;;;;;;5.50;3.45;;;30.90;79.30;;;;;;5108007;28;20023;-70
2022/05/19 13:25:20;;;;;;;7.97;3.75;;;31.10;76.80;;;;;;5083487;28;20024;-70
2022/05/19 13:30:43;;;;;;;7.45;3.75;;;30.90;77.80;;;;;;5103449;28;20028;-68
2022/05/19 13:33:16;;;;;;;7.63;3.83;;;30.90;77.10;;;;;;5110142;28;20032;-67
2022/05/19 13:35:42;;;;;;;6.18;3.67;;;30.30;76.50;;;;;;5109350;28;20028;-67
2022/05/19 13:38:23;;;;;;;4.20;3.28;;;30.00;78.10;;;;;;5091877;28;20023;-70
2022/05/19 13:40:51;;;;;;;4.72;3.47;;;29.80;79.60;;;;;;5109207;28;20024;-67
2022/05/19 13:43:44;;;;;;;6.38;3.35;;;29.80;80.90;;;;;;5054209;28;20028;-70
2022/05/19 13:46:19;;;;;;;4.85;3.40;;;29.60;77.50;;;;;;5108870;28;20501;-70
2022/05/19 13:48:52;;;;;;;7.40;3.65;;;29.20;77.80;;;;;;5091618;28;20443;-70